sensor_id;sensor_type;location;lat;lon;timestamp;temperature;humidity
17715;DHT22;8977;50.902;4.314;2022-08-11T00:01:14;24.80;94.10
17715;DHT22;8977;50.902;4.314;2022-08-11T00:03:43;24.80;94.00
17715;DHT22;8977;50.902;4.314;2022-08-11T00:06:13;24.80;94.00
17715;DHT22;8977;50.902;4.314;2022-08-11T00:08:41;24.80;94.00
17715;DHT22;8977;50.902;4.314;2022-08-11T00:11:10;24.80;94.40
17715;DHT22;8977;50.902;4.314;2022-08-11T00:13:39;24.80;94.00
17715;DHT22;8977;50.902;4.314;2022-08-11T00:16:13;24.80;94.10
17715;DHT22;8977;50.902;4.314;2022-08-11T00:18:42;24.80;94.00
17715;DHT22;8977;50.902;4.314;2022-08-11T00:21:11;24.70;94.00
17715;DHT22;8977;50.902;4.314;2022-08-11T00:23:41;24.70;94.10
17715;DHT22;8977;50.902;4.314;2022-08-11T00:26:11;24.70;94.10
17715;DHT22;8977;50.902;4.314;2022-08-11T00:28:38;24.70;94.10
17715;DHT22;8977;50.902;4.314;2022-08-11T00:31:07;24.60;94.20
17715;DHT22;8977;50.902;4.314;2022-08-11T00:33:37;24.60;94.20
17715;DHT22;8977;50.902;4.314;2022-08-11T00:36:05;24.50;94.20
17715;DHT22;8977;50.902;4.314;2022-08-11T00:38:38;24.50;94.20
17715;DHT22;8977;50.902;4.314;2022-08-11T00:41:19;24.50;94.20
17715;DHT22;8977;50.902;4.314;2022-08-11T00:44:11;24.50;94.20
17715;DHT22;8977;50.902;4.314;2022-08-11T00:46:49;24.50;94.30
17715;DHT22;8977;50.902;4.314;2022-08-11T00:49:29;24.50;94.40
17715;DHT22;8977;50.902;4.314;2022-08-11T00:52:15;24.50;94.50
17715;DHT22;8977;50.902;4.314;2022-08-11T00:55:39;24.40;94.30
17715;DHT22;8977;50.902;4.314;2022-08-11T00:58:38;24.40;94.40
17715;DHT22;8977;50.902;4.314;2022-08-11T01:01:17;24.40;94.50
17715;DHT22;8977;50.902;4.314;2022-08-11T01:04:09;24.30;94.60
17715;DHT22;8977;50.902;4.314;2022-08-11T01:06:58;24.30;94.50
17715;DHT22;8977;50.902;4.314;2022-08-11T01:09:48;24.20;94.60
17715;DHT22;8977;50.902;4.314;2022-08-11T01:12:28;24.20;94.60
17715;DHT22;8977;50.902;4.314;2022-08-11T01:25:02;24.10;94.70
17715;DHT22;8977;50.902;4.314;2022-08-11T01:37:46;24.10;94.80
17715;DHT22;8977;50.902;4.314;2022-08-11T01:40:39;24.10;94.70
17715;DHT22;8977;50.902;4.314;2022-08-11T01:43:46;24.00;94.70
17715;DHT22;8977;50.902;4.314;2022-08-11T01:46:42;24.10;94.60
17715;DHT22;8977;50.902;4.314;2022-08-11T01:49:18;24.20;94.50
17715;DHT22;8977;50.902;4.314;2022-08-11T01:52:01;24.10;94.50
17715;DHT22;8977;50.902;4.314;2022-08-11T01:54:39;24.10;94.50
17715;DHT22;8977;50.902;4.314;2022-08-11T01:57:15;24.10;94.90
17715;DHT22;8977;50.902;4.314;2022-08-11T01:59:48;24.20;94.40
17715;DHT22;8977;50.902;4.314;2022-08-11T02:02:26;24.20;94.20
17715;DHT22;8977;50.902;4.314;2022-08-11T02:08:09;24.10;94.40
17715;DHT22;8977;50.902;4.314;2022-08-11T02:10:44;24.10;94.40
17715;DHT22;8977;50.902;4.314;2022-08-11T02:13:36;24.10;94.30
17715;DHT22;8977;50.902;4.314;2022-08-11T02:16:15;24.10;94.50
17715;DHT22;8977;50.902;4.314;2022-08-11T02:18:47;24.10;94.40
17715;DHT22;8977;50.902;4.314;2022-08-11T02:21:43;24.00;94.40
17715;DHT22;8977;50.902;4.314;2022-08-11T02:24:33;24.00;94.40
17715;DHT22;8977;50.902;4.314;2022-08-11T02:27:06;24.00;94.50
17715;DHT22;8977;50.902;4.314;2022-08-11T02:29:40;24.00;94.90
17715;DHT22;8977;50.902;4.314;2022-08-11T02:32:17;24.10;94.70
17715;DHT22;8977;50.902;4.314;2022-08-11T02:35:11;24.00;94.50
17715;DHT22;8977;50.902;4.314;2022-08-11T02:37:49;24.00;94.60
17715;DHT22;8977;50.902;4.314;2022-08-11T02:40:24;23.90;94.60
17715;DHT22;8977;50.902;4.314;2022-08-11T02:43:05;23.90;94.70
17715;DHT22;8977;50.902;4.314;2022-08-11T02:45:44;23.90;94.70
17715;DHT22;8977;50.902;4.314;2022-08-11T02:48:24;23.90;94.80
17715;DHT22;8977;50.902;4.314;2022-08-11T02:51:16;23.80;94.80
17715;DHT22;8977;50.902;4.314;2022-08-11T02:53:50;23.80;94.90
17715;DHT22;8977;50.902;4.314;2022-08-11T02:56:27;23.80;94.80
17715;DHT22;8977;50.902;4.314;2022-08-11T02:59:07;23.80;94.80
17715;DHT22;8977;50.902;4.314;2022-08-11T03:02:01;23.80;94.70
17715;DHT22;8977;50.902;4.314;2022-08-11T03:04:38;23.80;94.80
17715;DHT22;8977;50.902;4.314;2022-08-11T03:07:21;23.70;94.90
17715;DHT22;8977;50.902;4.314;2022-08-11T03:09:54;23.70;94.90
17715;DHT22;8977;50.902;4.314;2022-08-11T03:12:28;23.70;95.00
17715;DHT22;8977;50.902;4.314;2022-08-11T03:15:18;23.70;95.00
17715;DHT22;8977;50.902;4.314;2022-08-11T03:18:14;23.70;94.90
17715;DHT22;8977;50.902;4.314;2022-08-11T03:20:48;23.80;94.90
17715;DHT22;8977;50.902;4.314;2022-08-11T03:23:24;23.80;94.90
17715;DHT22;8977;50.902;4.314;2022-08-11T03:26:00;23.80;94.90
17715;DHT22;8977;50.902;4.314;2022-08-11T03:28:33;23.70;95.00
17715;DHT22;8977;50.902;4.314;2022-08-11T03:31:17;23.60;95.00
17715;DHT22;8977;50.902;4.314;2022-08-11T03:33:49;23.60;95.10
17715;DHT22;8977;50.902;4.314;2022-08-11T03:36:51;23.50;95.20
17715;DHT22;8977;50.902;4.314;2022-08-11T03:39:27;23.60;95.10
17715;DHT22;8977;50.902;4.314;2022-08-11T03:42:05;23.50;95.30
17715;DHT22;8977;50.902;4.314;2022-08-11T03:44:45;23.50;95.40
17715;DHT22;8977;50.902;4.314;2022-08-11T03:47:26;23.40;95.40
17715;DHT22;8977;50.902;4.314;2022-08-11T03:50:06;23.40;95.60
17715;DHT22;8977;50.902;4.314;2022-08-11T03:52:48;23.30;95.70
17715;DHT22;8977;50.902;4.314;2022-08-11T03:55:26;23.30;95.60
17715;DHT22;8977;50.902;4.314;2022-08-11T03:58:32;23.40;95.60
17715;DHT22;8977;50.902;4.314;2022-08-11T04:01:42;23.30;95.50
17715;DHT22;8977;50.902;4.314;2022-08-11T04:17:26;23.00;96.20
17715;DHT22;8977;50.902;4.314;2022-08-11T04:20:18;23.00;96.20
17715;DHT22;8977;50.902;4.314;2022-08-11T04:23:17;22.90;96.30
17715;DHT22;8977;50.902;4.314;2022-08-11T04:26:13;23.00;96.30
17715;DHT22;8977;50.902;4.314;2022-08-11T04:29:02;22.90;96.30
17715;DHT22;8977;50.902;4.314;2022-08-11T04:31:37;22.90;96.40
17715;DHT22;8977;50.902;4.314;2022-08-11T04:37:15;23.00;96.10
17715;DHT22;8977;50.902;4.314;2022-08-11T04:40:17;23.00;96.20
17715;DHT22;8977;50.902;4.314;2022-08-11T04:46:25;22.90;96.40
17715;DHT22;8977;50.902;4.314;2022-08-11T04:49:18;22.80;96.40
17715;DHT22;8977;50.902;4.314;2022-08-11T04:52:43;22.90;96.40
17715;DHT22;8977;50.902;4.314;2022-08-11T04:55:41;22.80;96.60
17715;DHT22;8977;50.902;4.314;2022-08-11T04:58:54;22.70;96.60
17715;DHT22;8977;50.902;4.314;2022-08-11T05:01:52;22.70;96.80
17715;DHT22;8977;50.902;4.314;2022-08-11T05:04:40;22.70;96.90
17715;DHT22;8977;50.902;4.314;2022-08-11T05:10:54;22.80;96.90
17715;DHT22;8977;50.902;4.314;2022-08-11T05:13:27;22.70;96.90
17715;DHT22;8977;50.902;4.314;2022-08-11T05:16:17;22.70;96.80
17715;DHT22;8977;50.902;4.314;2022-08-11T05:19:03;22.70;96.90
17715;DHT22;8977;50.902;4.314;2022-08-11T05:21:54;22.90;97.30
17715;DHT22;8977;50.902;4.314;2022-08-11T05:24:42;22.90;96.80
17715;DHT22;8977;50.902;4.314;2022-08-11T05:27:34;22.90;96.90
17715;DHT22;8977;50.902;4.314;2022-08-11T05:30:25;23.00;96.80
17715;DHT22;8977;50.902;4.314;2022-08-11T05:33:18;23.00;96.80
17715;DHT22;8977;50.902;4.314;2022-08-11T05:36:10;23.10;96.80
17715;DHT22;8977;50.902;4.314;2022-08-11T05:38:38;23.00;96.70
17715;DHT22;8977;50.902;4.314;2022-08-11T05:41:24;23.00;96.80
17715;DHT22;8977;50.902;4.314;2022-08-11T05:44:17;23.00;97.20
17715;DHT22;8977;50.902;4.314;2022-08-11T05:47:02;23.10;96.90
17715;DHT22;8977;50.902;4.314;2022-08-11T05:49:50;23.10;96.80
17715;DHT22;8977;50.902;4.314;2022-08-11T05:52:35;23.20;96.80
17715;DHT22;8977;50.902;4.314;2022-08-11T05:55:22;23.20;96.80
17715;DHT22;8977;50.902;4.314;2022-08-11T05:58:08;23.20;96.90
17715;DHT22;8977;50.902;4.314;2022-08-11T06:00:40;23.20;96.90
17715;DHT22;8977;50.902;4.314;2022-08-11T06:03:08;23.30;96.80
17715;DHT22;8977;50.902;4.314;2022-08-11T06:05:38;23.30;96.90
17715;DHT22;8977;50.902;4.314;2022-08-11T06:08:06;23.40;96.80
17715;DHT22;8977;50.902;4.314;2022-08-11T06:10:36;23.40;96.90
17715;DHT22;8977;50.902;4.314;2022-08-11T06:13:04;23.40;96.80
17715;DHT22;8977;50.902;4.314;2022-08-11T06:15:33;23.40;96.80
17715;DHT22;8977;50.902;4.314;2022-08-11T06:18:09;23.50;96.80
17715;DHT22;8977;50.902;4.314;2022-08-11T06:20:45;23.50;96.80
17715;DHT22;8977;50.902;4.314;2022-08-11T06:23:13;23.50;96.80
17715;DHT22;8977;50.902;4.314;2022-08-11T06:25:43;23.60;96.90
17715;DHT22;8977;50.902;4.314;2022-08-11T06:28:10;23.50;96.90
17715;DHT22;8977;50.902;4.314;2022-08-11T06:30:39;23.60;96.90
17715;DHT22;8977;50.902;4.314;2022-08-11T06:33:09;23.60;96.90
17715;DHT22;8977;50.902;4.314;2022-08-11T06:35:47;23.70;96.90
17715;DHT22;8977;50.902;4.314;2022-08-11T06:38:31;23.70;96.80
17715;DHT22;8977;50.902;4.314;2022-08-11T06:41:07;23.80;96.70
17715;DHT22;8977;50.902;4.314;2022-08-11T06:44:08;23.80;96.50
17715;DHT22;8977;50.902;4.314;2022-08-11T06:46:42;23.80;96.50
17715;DHT22;8977;50.902;4.314;2022-08-11T06:49:10;23.80;96.60
17715;DHT22;8977;50.902;4.314;2022-08-11T06:51:53;23.90;96.60
17715;DHT22;8977;50.902;4.314;2022-08-11T06:54:21;24.00;96.30
17715;DHT22;8977;50.902;4.314;2022-08-11T06:56:48;24.00;96.50
17715;DHT22;8977;50.902;4.314;2022-08-11T06:59:33;24.10;96.20
17715;DHT22;8977;50.902;4.314;2022-08-11T07:02:22;24.10;96.20
17715;DHT22;8977;50.902;4.314;2022-08-11T07:04:55;24.20;96.00
17715;DHT22;8977;50.902;4.314;2022-08-11T07:10:48;24.20;95.90
17715;DHT22;8977;50.902;4.314;2022-08-11T07:13:39;24.30;95.90
17715;DHT22;8977;50.902;4.314;2022-08-11T07:16:27;24.30;95.70
17715;DHT22;8977;50.902;4.314;2022-08-11T07:18:58;24.30;95.50
17715;DHT22;8977;50.902;4.314;2022-08-11T07:21:45;24.40;95.20
17715;DHT22;8977;50.902;4.314;2022-08-11T07:24:34;24.40;95.30
17715;DHT22;8977;50.902;4.314;2022-08-11T07:27:20;24.50;95.40
17715;DHT22;8977;50.902;4.314;2022-08-11T07:30:08;24.50;95.60
17715;DHT22;8977;50.902;4.314;2022-08-11T07:32:40;24.50;95.00
17715;DHT22;8977;50.902;4.314;2022-08-11T07:35:12;24.50;95.10
17715;DHT22;8977;50.902;4.314;2022-08-11T07:37:44;24.60;95.00
17715;DHT22;8977;50.902;4.314;2022-08-11T07:40:19;24.70;94.80
17715;DHT22;8977;50.902;4.314;2022-08-11T07:42:48;24.70;94.60
17715;DHT22;8977;50.902;4.314;2022-08-11T07:45:15;24.70;94.60
17715;DHT22;8977;50.902;4.314;2022-08-11T07:48:00;24.70;94.50
17715;DHT22;8977;50.902;4.314;2022-08-11T07:50:46;24.80;94.60
17715;DHT22;8977;50.902;4.314;2022-08-11T07:53:30;24.80;94.70
17715;DHT22;8977;50.902;4.314;2022-08-11T07:56:02;24.90;94.60
17715;DHT22;8977;50.902;4.314;2022-08-11T07:58:30;24.90;94.40
17715;DHT22;8977;50.902;4.314;2022-08-11T08:01:18;24.90;94.20
17715;DHT22;8977;50.902;4.314;2022-08-11T08:04:04;24.90;94.30
17715;DHT22;8977;50.902;4.314;2022-08-11T08:06:50;24.90;94.20
17715;DHT22;8977;50.902;4.314;2022-08-11T08:09:34;25.00;94.30
17715;DHT22;8977;50.902;4.314;2022-08-11T08:12:23;25.00;94.40
17715;DHT22;8977;50.902;4.314;2022-08-11T08:15:09;25.00;94.40
17715;DHT22;8977;50.902;4.314;2022-08-11T08:17:54;25.10;94.10
17715;DHT22;8977;50.902;4.314;2022-08-11T08:20:25;25.10;94.30
17715;DHT22;8977;50.902;4.314;2022-08-11T08:22:55;25.10;94.00
17715;DHT22;8977;50.902;4.314;2022-08-11T08:25:26;25.20;93.40
17715;DHT22;8977;50.902;4.314;2022-08-11T08:27:55;25.30;93.30
17715;DHT22;8977;50.902;4.314;2022-08-11T08:30:24;25.30;93.20
17715;DHT22;8977;50.902;4.314;2022-08-11T08:33:11;25.40;93.20
17715;DHT22;8977;50.902;4.314;2022-08-11T08:35:40;25.40;93.10
17715;DHT22;8977;50.902;4.314;2022-08-11T08:38:09;25.50;93.00
17715;DHT22;8977;50.902;4.314;2022-08-11T08:40:37;25.50;92.80
17715;DHT22;8977;50.902;4.314;2022-08-11T08:43:08;25.60;92.70
17715;DHT22;8977;50.902;4.314;2022-08-11T08:45:38;25.60;92.80
17715;DHT22;8977;50.902;4.314;2022-08-11T08:48:10;25.70;92.70
17715;DHT22;8977;50.902;4.314;2022-08-11T08:50:42;25.70;92.70
17715;DHT22;8977;50.902;4.314;2022-08-11T08:53:35;25.70;92.60
17715;DHT22;8977;50.902;4.314;2022-08-11T08:56:06;25.80;92.60
17715;DHT22;8977;50.902;4.314;2022-08-11T08:58:37;25.80;92.90
17715;DHT22;8977;50.902;4.314;2022-08-11T09:01:04;25.90;92.40
17715;DHT22;8977;50.902;4.314;2022-08-11T09:03:35;25.90;92.60
17715;DHT22;8977;50.902;4.314;2022-08-11T09:06:02;26.00;91.90
17715;DHT22;8977;50.902;4.314;2022-08-11T09:08:30;26.00;91.80
17715;DHT22;8977;50.902;4.314;2022-08-11T09:10:58;26.10;91.60
17715;DHT22;8977;50.902;4.314;2022-08-11T09:13:45;26.10;91.30
17715;DHT22;8977;50.902;4.314;2022-08-11T09:16:12;26.20;91.20
17715;DHT22;8977;50.902;4.314;2022-08-11T09:18:41;26.20;91.20
17715;DHT22;8977;50.902;4.314;2022-08-11T09:21:10;26.30;91.20
17715;DHT22;8977;50.902;4.314;2022-08-11T09:23:40;26.30;91.10
17715;DHT22;8977;50.902;4.314;2022-08-11T09:26:24;26.30;91.20
17715;DHT22;8977;50.902;4.314;2022-08-11T09:29:11;26.40;91.50
17715;DHT22;8977;50.902;4.314;2022-08-11T09:31:38;26.40;91.60
17715;DHT22;8977;50.902;4.314;2022-08-11T09:34:06;26.50;91.60
17715;DHT22;8977;50.902;4.314;2022-08-11T09:36:33;26.50;91.30
17715;DHT22;8977;50.902;4.314;2022-08-11T09:39:18;26.60;91.00
17715;DHT22;8977;50.902;4.314;2022-08-11T09:42:03;26.60;91.10
17715;DHT22;8977;50.902;4.314;2022-08-11T09:44:33;26.60;90.90
17715;DHT22;8977;50.902;4.314;2022-08-11T09:47:20;26.70;90.90
17715;DHT22;8977;50.902;4.314;2022-08-11T09:49:50;26.80;90.80
17715;DHT22;8977;50.902;4.314;2022-08-11T09:52:18;26.90;90.90
17715;DHT22;8977;50.902;4.314;2022-08-11T09:54:47;26.90;90.80
17715;DHT22;8977;50.902;4.314;2022-08-11T09:57:18;26.90;90.80
17715;DHT22;8977;50.902;4.314;2022-08-11T10:00:06;27.00;90.70
17715;DHT22;8977;50.902;4.314;2022-08-11T10:02:33;27.10;90.70
17715;DHT22;8977;50.902;4.314;2022-08-11T10:05:04;27.10;90.50
17715;DHT22;8977;50.902;4.314;2022-08-11T10:07:50;27.10;90.60
17715;DHT22;8977;50.902;4.314;2022-08-11T10:10:20;27.20;90.70
17715;DHT22;8977;50.902;4.314;2022-08-11T10:12:51;27.20;90.50
17715;DHT22;8977;50.902;4.314;2022-08-11T10:15:22;27.30;90.80
17715;DHT22;8977;50.902;4.314;2022-08-11T10:18:05;27.30;90.30
17715;DHT22;8977;50.902;4.314;2022-08-11T10:20:52;27.30;90.20
17715;DHT22;8977;50.902;4.314;2022-08-11T10:23:21;27.40;90.10
17715;DHT22;8977;50.902;4.314;2022-08-11T10:26:06;27.40;90.10
17715;DHT22;8977;50.902;4.314;2022-08-11T10:28:51;27.50;90.00
17715;DHT22;8977;50.902;4.314;2022-08-11T10:31:21;27.50;89.60
17715;DHT22;8977;50.902;4.314;2022-08-11T10:34:07;27.60;89.20
17715;DHT22;8977;50.902;4.314;2022-08-11T10:36:37;27.60;88.90
17715;DHT22;8977;50.902;4.314;2022-08-11T10:39:09;27.60;88.60
17715;DHT22;8977;50.902;4.314;2022-08-11T10:41:37;27.70;88.50
17715;DHT22;8977;50.902;4.314;2022-08-11T10:44:22;27.70;88.90
17715;DHT22;8977;50.902;4.314;2022-08-11T10:46:51;27.80;89.00
17715;DHT22;8977;50.902;4.314;2022-08-11T10:49:36;27.80;88.40
17715;DHT22;8977;50.902;4.314;2022-08-11T10:52:03;27.90;88.40
17715;DHT22;8977;50.902;4.314;2022-08-11T10:54:48;27.90;88.40
17715;DHT22;8977;50.902;4.314;2022-08-11T10:57:32;28.00;88.40
17715;DHT22;8977;50.902;4.314;2022-08-11T11:00:17;28.10;87.30
17715;DHT22;8977;50.902;4.314;2022-08-11T11:02:45;28.10;86.70
17715;DHT22;8977;50.902;4.314;2022-08-11T11:05:18;28.20;86.50
17715;DHT22;8977;50.902;4.314;2022-08-11T11:07:54;28.20;86.70
17715;DHT22;8977;50.902;4.314;2022-08-11T11:10:21;28.30;87.20
17715;DHT22;8977;50.902;4.314;2022-08-11T11:12:52;28.40;86.60
17715;DHT22;8977;50.902;4.314;2022-08-11T11:15:41;28.40;86.20
17715;DHT22;8977;50.902;4.314;2022-08-11T11:18:31;28.50;86.50
17715;DHT22;8977;50.902;4.314;2022-08-11T11:21:05;28.60;85.90
17715;DHT22;8977;50.902;4.314;2022-08-11T11:23:37;28.60;85.60
17715;DHT22;8977;50.902;4.314;2022-08-11T11:26:30;28.70;85.30
17715;DHT22;8977;50.902;4.314;2022-08-11T11:29:28;28.70;85.20
17715;DHT22;8977;50.902;4.314;2022-08-11T11:32:12;28.80;85.50
17715;DHT22;8977;50.902;4.314;2022-08-11T11:34:56;28.80;85.40
17715;DHT22;8977;50.902;4.314;2022-08-11T11:37:29;28.90;85.30
17715;DHT22;8977;50.902;4.314;2022-08-11T11:39:58;28.90;84.10
17715;DHT22;8977;50.902;4.314;2022-08-11T11:42:26;29.00;83.30
17715;DHT22;8977;50.902;4.314;2022-08-11T11:44:54;29.00;83.70
17715;DHT22;8977;50.902;4.314;2022-08-11T11:47:21;29.10;85.00
17715;DHT22;8977;50.902;4.314;2022-08-11T11:49:50;29.10;84.80
17715;DHT22;8977;50.902;4.314;2022-08-11T11:52:19;29.20;84.00
17715;DHT22;8977;50.902;4.314;2022-08-11T11:54:48;29.20;83.50
17715;DHT22;8977;50.902;4.314;2022-08-11T11:57:19;29.30;82.90
17715;DHT22;8977;50.902;4.314;2022-08-11T12:00:06;29.30;82.00
17715;DHT22;8977;50.902;4.314;2022-08-11T12:02:51;29.40;81.90
17715;DHT22;8977;50.902;4.314;2022-08-11T12:05:20;29.50;80.90
17715;DHT22;8977;50.902;4.314;2022-08-11T12:07:47;29.50;81.40
17715;DHT22;8977;50.902;4.314;2022-08-11T12:10:32;29.50;82.60
17715;DHT22;8977;50.902;4.314;2022-08-11T12:13:00;29.50;81.50
17715;DHT22;8977;50.902;4.314;2022-08-11T12:15:45;29.60;82.20
17715;DHT22;8977;50.902;4.314;2022-08-11T12:18:13;29.60;82.50
17715;DHT22;8977;50.902;4.314;2022-08-11T12:20:42;29.70;82.20
17715;DHT22;8977;50.902;4.314;2022-08-11T12:23:09;29.70;81.20
17715;DHT22;8977;50.902;4.314;2022-08-11T12:25:54;29.80;81.30
17715;DHT22;8977;50.902;4.314;2022-08-11T12:28:38;29.80;81.10
17715;DHT22;8977;50.902;4.314;2022-08-11T12:31:06;29.90;81.30
17715;DHT22;8977;50.902;4.314;2022-08-11T12:33:34;30.00;81.30
17715;DHT22;8977;50.902;4.314;2022-08-11T12:36:04;30.00;80.60
17715;DHT22;8977;50.902;4.314;2022-08-11T12:38:32;30.10;80.20
17715;DHT22;8977;50.902;4.314;2022-08-11T12:41:01;30.20;78.40
17715;DHT22;8977;50.902;4.314;2022-08-11T12:43:46;30.20;79.00
17715;DHT22;8977;50.902;4.314;2022-08-11T12:46:33;30.20;80.20
17715;DHT22;8977;50.902;4.314;2022-08-11T12:49:09;30.30;80.30
17715;DHT22;8977;50.902;4.314;2022-08-11T12:52:01;30.40;78.70
17715;DHT22;8977;50.902;4.314;2022-08-11T12:54:32;30.50;78.40
17715;DHT22;8977;50.902;4.314;2022-08-11T12:57:02;30.50;78.00
17715;DHT22;8977;50.902;4.314;2022-08-11T12:59:49;30.60;77.10
17715;DHT22;8977;50.902;4.314;2022-08-11T13:02:35;30.60;77.30
17715;DHT22;8977;50.902;4.314;2022-08-11T13:05:20;30.70;78.10
17715;DHT22;8977;50.902;4.314;2022-08-11T13:07:49;30.80;78.90
17715;DHT22;8977;50.902;4.314;2022-08-11T13:10:18;30.80;78.70
17715;DHT22;8977;50.902;4.314;2022-08-11T13:13:07;30.90;77.70
17715;DHT22;8977;50.902;4.314;2022-08-11T13:15:34;31.00;77.60
17715;DHT22;8977;50.902;4.314;2022-08-11T13:18:02;31.00;76.80
17715;DHT22;8977;50.902;4.314;2022-08-11T13:20:32;31.10;75.60
17715;DHT22;8977;50.902;4.314;2022-08-11T13:23:02;31.10;74.60
17715;DHT22;8977;50.902;4.314;2022-08-11T13:25:31;31.20;74.00
17715;DHT22;8977;50.902;4.314;2022-08-11T13:27:59;31.20;74.20
17715;DHT22;8977;50.902;4.314;2022-08-11T13:30:29;31.20;75.30
17715;DHT22;8977;50.902;4.314;2022-08-11T13:33:16;31.20;73.50
17715;DHT22;8977;50.902;4.314;2022-08-11T13:35:44;31.30;73.80
17715;DHT22;8977;50.902;4.314;2022-08-11T13:38:14;31.30;74.10
17715;DHT22;8977;50.902;4.314;2022-08-11T13:40:42;31.30;74.30
17715;DHT22;8977;50.902;4.314;2022-08-11T13:43:12;31.30;73.60
17715;DHT22;8977;50.902;4.314;2022-08-11T13:45:40;31.30;74.10
17715;DHT22;8977;50.902;4.314;2022-08-11T13:48:09;31.30;74.90
17715;DHT22;8977;50.902;4.314;2022-08-11T13:50:37;31.30;73.90
17715;DHT22;8977;50.902;4.314;2022-08-11T13:53:25;31.30;73.30
17715;DHT22;8977;50.902;4.314;2022-08-11T13:55:53;31.20;72.80
17715;DHT22;8977;50.902;4.314;2022-08-11T13:58:22;31.20;72.90
17715;DHT22;8977;50.902;4.314;2022-08-11T14:00:50;31.20;73.50
17715;DHT22;8977;50.902;4.314;2022-08-11T14:03:22;31.20;73.50
17715;DHT22;8977;50.902;4.314;2022-08-11T14:05:52;31.20;74.00
17715;DHT22;8977;50.902;4.314;2022-08-11T14:08:28;31.20;74.10
17715;DHT22;8977;50.902;4.314;2022-08-11T14:11:00;31.20;74.60
17715;DHT22;8977;50.902;4.314;2022-08-11T14:13:45;31.10;74.10
17715;DHT22;8977;50.902;4.314;2022-08-11T14:16:16;31.00;73.90
17715;DHT22;8977;50.902;4.314;2022-08-11T14:18:47;31.00;74.10
17715;DHT22;8977;50.902;4.314;2022-08-11T14:21:15;30.90;73.80
17715;DHT22;8977;50.902;4.314;2022-08-11T14:24:03;30.90;75.00
17715;DHT22;8977;50.902;4.314;2022-08-11T14:26:30;30.80;75.10
17715;DHT22;8977;50.902;4.314;2022-08-11T14:29:06;30.70;75.50
17715;DHT22;8977;50.902;4.314;2022-08-11T14:31:37;30.60;75.10
17715;DHT22;8977;50.902;4.314;2022-08-11T14:34:06;30.50;75.40
17715;DHT22;8977;50.902;4.314;2022-08-11T14:36:37;30.50;75.40
17715;DHT22;8977;50.902;4.314;2022-08-11T14:39:08;30.50;75.90
17715;DHT22;8977;50.902;4.314;2022-08-11T14:41:37;30.40;75.70
17715;DHT22;8977;50.902;4.314;2022-08-11T14:44:23;30.40;75.80
17715;DHT22;8977;50.902;4.314;2022-08-11T14:47:08;30.30;75.20
17715;DHT22;8977;50.902;4.314;2022-08-11T14:49:40;30.20;76.30
17715;DHT22;8977;50.902;4.314;2022-08-11T14:52:09;30.20;76.10
17715;DHT22;8977;50.902;4.314;2022-08-11T14:54:37;30.20;75.60
17715;DHT22;8977;50.902;4.314;2022-08-11T14:57:24;30.20;75.50
17715;DHT22;8977;50.902;4.314;2022-08-11T14:59:54;30.20;76.10
17715;DHT22;8977;50.902;4.314;2022-08-11T15:02:23;30.20;76.10
17715;DHT22;8977;50.902;4.314;2022-08-11T15:05:08;30.20;76.00
17715;DHT22;8977;50.902;4.314;2022-08-11T15:07:35;30.20;75.10
17715;DHT22;8977;50.902;4.314;2022-08-11T15:10:06;30.20;74.90
17715;DHT22;8977;50.902;4.314;2022-08-11T15:12:36;30.30;75.80
17715;DHT22;8977;50.902;4.314;2022-08-11T15:15:06;30.40;75.60
17715;DHT22;8977;50.902;4.314;2022-08-11T15:17:52;30.50;76.70
17715;DHT22;8977;50.902;4.314;2022-08-11T15:20:20;30.60;76.10
17715;DHT22;8977;50.902;4.314;2022-08-11T15:23:05;30.70;75.80
17715;DHT22;8977;50.902;4.314;2022-08-11T15:25:54;30.80;76.60
17715;DHT22;8977;50.902;4.314;2022-08-11T15:28:22;30.90;75.30
17715;DHT22;8977;50.902;4.314;2022-08-11T15:31:09;31.10;76.40
17715;DHT22;8977;50.902;4.314;2022-08-11T15:33:57;31.20;76.90
17715;DHT22;8977;50.902;4.314;2022-08-11T15:36:46;31.20;75.90
17715;DHT22;8977;50.902;4.314;2022-08-11T15:39:35;31.20;76.10
17715;DHT22;8977;50.902;4.314;2022-08-11T15:42:24;31.30;77.00
17715;DHT22;8977;50.902;4.314;2022-08-11T15:45:09;31.30;76.60
17715;DHT22;8977;50.902;4.314;2022-08-11T15:48:02;31.40;77.30
17715;DHT22;8977;50.902;4.314;2022-08-11T15:50:34;31.40;78.60
17715;DHT22;8977;50.902;4.314;2022-08-11T15:53:08;31.40;77.40
17715;DHT22;8977;50.902;4.314;2022-08-11T15:55:37;31.50;76.20
17715;DHT22;8977;50.902;4.314;2022-08-11T15:58:07;31.50;76.60
17715;DHT22;8977;50.902;4.314;2022-08-11T16:00:53;31.50;76.90
17715;DHT22;8977;50.902;4.314;2022-08-11T16:03:41;31.50;77.00
17715;DHT22;8977;50.902;4.314;2022-08-11T16:06:28;31.50;75.80
17715;DHT22;8977;50.902;4.314;2022-08-11T16:08:58;31.50;76.30
17715;DHT22;8977;50.902;4.314;2022-08-11T16:11:31;31.40;76.80
17715;DHT22;8977;50.902;4.314;2022-08-11T16:14:02;31.50;76.70
17715;DHT22;8977;50.902;4.314;2022-08-11T16:16:49;31.40;76.90
17715;DHT22;8977;50.902;4.314;2022-08-11T16:19:18;31.40;76.80
17715;DHT22;8977;50.902;4.314;2022-08-11T16:21:46;31.30;76.80
17715;DHT22;8977;50.902;4.314;2022-08-11T16:24:17;31.20;76.70
17715;DHT22;8977;50.902;4.314;2022-08-11T16:26:45;31.20;76.50
17715;DHT22;8977;50.902;4.314;2022-08-11T16:29:14;31.20;76.40
17715;DHT22;8977;50.902;4.314;2022-08-11T16:31:42;31.30;75.40
17715;DHT22;8977;50.902;4.314;2022-08-11T16:34:31;31.20;74.70
17715;DHT22;8977;50.902;4.314;2022-08-11T16:37:16;31.20;74.90
17715;DHT22;8977;50.902;4.314;2022-08-11T16:40:02;31.10;74.80
17715;DHT22;8977;50.902;4.314;2022-08-11T16:42:29;31.10;75.00
17715;DHT22;8977;50.902;4.314;2022-08-11T16:45:15;31.00;74.10
17715;DHT22;8977;50.902;4.314;2022-08-11T16:48:01;31.00;74.10
17715;DHT22;8977;50.902;4.314;2022-08-11T16:50:28;30.90;74.00
17715;DHT22;8977;50.902;4.314;2022-08-11T16:52:55;30.90;73.50
17715;DHT22;8977;50.902;4.314;2022-08-11T16:55:22;30.80;72.90
17715;DHT22;8977;50.902;4.314;2022-08-11T16:57:50;30.80;72.50
17715;DHT22;8977;50.902;4.314;2022-08-11T17:00:36;30.70;72.10
17715;DHT22;8977;50.902;4.314;2022-08-11T17:03:05;30.70;71.90
17715;DHT22;8977;50.902;4.314;2022-08-11T17:05:52;30.60;72.20
17715;DHT22;8977;50.902;4.314;2022-08-11T17:08:41;30.60;71.30
17715;DHT22;8977;50.902;4.314;2022-08-11T17:11:28;30.50;71.90
17715;DHT22;8977;50.902;4.314;2022-08-11T17:14:22;30.50;72.60
17715;DHT22;8977;50.902;4.314;2022-08-11T17:16:52;30.50;73.10
17715;DHT22;8977;50.902;4.314;2022-08-11T17:19:21;30.40;72.70
17715;DHT22;8977;50.902;4.314;2022-08-11T17:21:50;30.30;72.50
17715;DHT22;8977;50.902;4.314;2022-08-11T17:24:39;30.30;72.60
17715;DHT22;8977;50.902;4.314;2022-08-11T17:27:07;30.20;72.60
17715;DHT22;8977;50.902;4.314;2022-08-11T17:29:38;30.20;73.00
17715;DHT22;8977;50.902;4.314;2022-08-11T17:32:10;30.10;73.00
17715;DHT22;8977;50.902;4.314;2022-08-11T17:34:57;30.10;73.00
17715;DHT22;8977;50.902;4.314;2022-08-11T17:37:42;30.10;73.10
17715;DHT22;8977;50.902;4.314;2022-08-11T17:40:13;30.00;72.90
17715;DHT22;8977;50.902;4.314;2022-08-11T17:42:43;30.00;73.20